Time;durP1;ratioP1;P1;durP2;ratioP2;P2;SDS_P1;SDS_P2;PMS_P1;PMS_P2;Temp;Humidity;BMP_temperature;BMP_pressure;BME280_temperature;BME280_humidity;BME280_pressure;Samples;Min_cycle;Max_cycle;Signal;HPM_P1;HPM_P2
2022/04/06 00:02:34;;;;;;;;;;;;;;;-2.32;65.40;96930.09;6322090;28;19930;-64
2022/04/06 00:05:38;;;;;;;;;;;;;;;-2.26;65.70;96930.00;6321428;28;20310;-64
2022/04/06 00:08:39;;;;;;;;;;;;;;;-2.36;65.78;96932.72;6323218;28;20004;-64
2022/04/06 00:11:42;;;;;;;;;;;;;;;-2.32;66.43;96918.91;6322378;28;20026;-63
2022/04/06 00:14:45;;;;;;;;;;;;;;;-2.18;66.31;96921.28;6323546;28;19943;-65
2022/04/06 00:17:46;;;;;;;;;;;;;;;-2.34;66.24;96915.50;6323318;28;20319;-64
2022/04/06 00:20:47;;;;;;;;;;;;;;;-2.23;66.03;96917.97;6321726;28;20438;-64
2022/04/06 00:23:52;;;;;;;;;;;;;;;-2.19;66.31;96922.19;6323019;28;19919;-64
2022/04/06 00:26:57;;;;;;;;;;;;;;;-2.20;66.32;96917.91;6322958;28;19928;-64
2022/04/06 00:30:04;;;;;;;;;;;;;;;-2.14;65.99;96925.56;6322020;28;19923;-64
2022/04/06 00:33:07;;;;;;;;;;;;;;;-2.31;66.60;96918.91;6322968;28;20300;-64
2022/04/06 00:36:12;;;;;;;;;;;;;;;-2.26;66.45;96930.00;6321419;28;20012;-64
2022/04/06 00:39:16;;;;;;;;;;;;;;;-2.26;66.43;96924.84;6322804;28;20448;-64
2022/04/06 00:42:18;;;;;;;;;;;;;;;-2.46;66.79;96925.97;6322695;28;19920;-64
2022/04/06 00:45:21;;;;;;;;;;;;;;;-2.54;67.03;96926.09;6322157;28;19919;-64
2022/04/06 00:48:22;;;;;;;;;;;;;;;-2.32;66.33;96924.06;6322026;28;19919;-64
2022/04/06 00:51:23;;;;;;;;;;;;;;;-2.40;66.96;96929.34;6322156;28;20400;-64
2022/04/06 00:54:28;;;;;;;;;;;;;;;-2.53;67.06;96925.19;6322519;28;19920;-64
2022/04/06 00:57:32;;;;;;;;;;;;;;;-2.38;66.97;96934.44;6322316;28;19924;-64
2022/04/06 01:00:36;;;;;;;;;;;;;;;-2.33;66.76;96943.81;6322788;28;20361;-63
2022/04/06 01:03:37;;;;;;;;;;;;;;;-2.47;66.69;96944.88;6321746;28;19920;-64
2022/04/06 01:06:38;;;;;;;;;;;;;;;-2.45;66.48;96938.84;6321802;28;19927;-64
2022/04/06 01:09:39;;;;;;;;;;;;;;;-2.50;66.92;96935.47;6321947;28;20404;-64
2022/04/06 01:12:46;;;;;;;;;;;;;;;-2.41;67.03;96944.81;6322031;28;19924;-63
2022/04/06 01:15:50;;;;;;;;;;;;;;;-2.29;66.87;96945.50;6321932;28;20340;-64
2022/04/06 01:18:51;;;;;;;;;;;;;;;-2.29;66.42;96942.94;6321311;28;20003;-65
2022/04/06 01:21:54;;;;;;;;;;;;;;;-2.41;66.21;96953.38;6321452;28;19924;-63
2022/04/06 01:24:55;;;;;;;;;;;;;;;-2.37;66.63;96962.78;6321148;28;20018;-64
2022/04/06 01:27:56;;;;;;;;;;;;;;;-2.35;67.06;96971.38;6320428;28;20057;-65
2022/04/06 01:30:57;;;;;;;;;;;;;;;-2.49;66.93;96973.25;6320465;28;20282;-64
2022/04/06 01:33:58;;;;;;;;;;;;;;;-2.35;66.56;96979.09;6321412;28;19951;-64
2022/04/06 01:36:59;;;;;;;;;;;;;;;-2.47;66.88;96980.94;6321064;28;19931;-64
2022/04/06 01:40:03;;;;;;;;;;;;;;;-2.42;66.78;96982.59;6319988;28;19951;-64
2022/04/06 01:43:04;;;;;;;;;;;;;;;-2.34;66.06;96988.53;6319603;28;19924;-64
2022/04/06 01:46:05;;;;;;;;;;;;;;;-2.27;65.90;96984.97;6320627;28;20403;-65
2022/04/06 01:52:28;;;;;;;;;;;;;;;-2.19;65.56;96991.78;6321058;28;20021;-64
2022/04/06 01:55:29;;;;;;;;;;;;;;;-2.43;66.21;96992.94;6321113;28;20185;-63
2022/04/06 01:58:33;;;;;;;;;;;;;;;-2.31;66.34;96987.63;6321118;28;19920;-64
2022/04/06 02:01:37;;;;;;;;;;;;;;;-2.18;65.50;97001.22;6321096;28;19920;-63
2022/04/06 02:04:39;;;;;;;;;;;;;;;-2.22;65.63;97007.28;6320822;28;19920;-64
2022/04/06 02:07:46;;;;;;;;;;;;;;;-2.18;65.30;96999.50;6321028;28;19924;-65
2022/04/06 02:10:47;;;;;;;;;;;;;;;-1.94;64.44;97013.78;6320395;28;20043;-64
2022/04/06 02:13:48;;;;;;;;;;;;;;;-1.95;64.56;97012.09;6319996;28;19927;-63
2022/04/06 02:16:50;;;;;;;;;;;;;;;-2.11;64.76;97008.00;6320064;28;19920;-64
2022/04/06 02:19:51;;;;;;;;;;;;;;;-2.03;64.86;97019.06;6320155;28;19942;-64
2022/04/06 02:22:52;;;;;;;;;;;;;;;-2.04;65.28;97022.50;6320497;28;19963;-64
2022/04/06 02:25:56;;;;;;;;;;;;;;;-1.89;64.74;97022.31;6320434;28;19920;-64
2022/04/06 02:29:01;;;;;;;;;;;;;;;-2.00;64.82;97031.09;6320626;28;19920;-64
2022/04/06 02:32:05;;;;;;;;;;;;;;;-1.84;64.84;97024.81;6320593;28;20014;-63
2022/04/06 02:35:06;;;;;;;;;;;;;;;-1.89;64.67;97022.31;6320001;28;19927;-63
2022/04/06 02:38:10;;;;;;;;;;;;;;;-1.97;64.77;97025.88;6319812;28;19924;-63
2022/04/06 02:41:14;;;;;;;;;;;;;;;-1.94;65.29;97034.41;6320654;28;19920;-64
2022/04/06 02:44:15;;;;;;;;;;;;;;;-2.02;65.08;97033.66;6319748;28;19927;-64
2022/04/06 02:47:21;;;;;;;;;;;;;;;-1.95;65.43;97042.16;6320337;28;19920;-62
2022/04/06 02:50:25;;;;;;;;;;;;;;;-1.85;65.79;97042.03;6320241;28;20385;-63
2022/04/06 02:53:26;;;;;;;;;;;;;;;-1.64;64.92;97040.06;6321519;28;20401;-63
2022/04/06 02:56:29;;;;;;;;;;;;;;;-1.76;65.05;97042.78;6324723;28;20010;-63
2022/04/06 02:59:39;;;;;;;;;;;;;;;-1.62;65.76;97046.03;6325196;28;19919;-63
2022/04/06 03:02:43;;;;;;;;;;;;;;;-1.54;65.05;97049.34;6324506;28;19975;-64
2022/04/06 03:05:49;;;;;;;;;;;;;;;-1.39;65.15;97054.31;6324647;28;19920;-64
2022/04/06 03:08:52;;;;;;;;;;;;;;;-1.05;63.56;97058.09;6324635;28;20495;-65
2022/04/06 03:11:56;;;;;;;;;;;;;;;-0.97;63.59;97072.56;6324503;28;19920;-63
2022/04/06 03:15:00;;;;;;;;;;;;;;;-0.88;63.50;97065.56;6324458;28;20487;-63
2022/04/06 03:18:03;;;;;;;;;;;;;;;-0.98;63.96;97073.47;6324177;28;19927;-63
2022/04/06 03:21:06;;;;;;;;;;;;;;;-0.64;63.34;97067.72;6324561;28;19920;-65
2022/04/06 03:24:12;;;;;;;;;;;;;;;-0.67;62.60;97078.13;6324601;28;19981;-64
2022/04/06 03:27:16;;;;;;;;;;;;;;;-0.43;63.06;97078.56;6324217;28;19931;-65
2022/04/06 03:30:20;;;;;;;;;;;;;;;-0.16;61.52;97072.88;6324503;28;19973;-64
2022/04/06 03:33:24;;;;;;;;;;;;;;;0.03;59.11;97072.50;6323828;28;19916;-64
2022/04/06 03:36:26;;;;;;;;;;;;;;;-0.02;58.56;97078.66;6322376;28;19920;-66
2022/04/06 03:39:33;;;;;;;;;;;;;;;0.10;58.40;97071.53;6324184;28;19927;-65
2022/04/06 03:42:34;;;;;;;;;;;;;;;0.24;57.28;97079.84;6323523;28;19936;-64
2022/04/06 03:45:41;;;;;;;;;;;;;;;0.22;56.74;97090.22;6324026;28;20457;-64
2022/04/06 03:48:44;;;;;;;;;;;;;;;0.23;56.45;97075.56;6323585;28;19920;-64
2022/04/06 03:51:48;;;;;;;;;;;;;;;0.25;56.11;97089.31;6323774;28;19919;-65
2022/04/06 03:54:52;;;;;;;;;;;;;;;0.33;56.47;97087.41;6323572;28;19924;-65
2022/04/06 03:57:56;;;;;;;;;;;;;;;0.59;55.25;97079.09;6323008;28;19924;-64
2022/04/06 04:01:00;;;;;;;;;;;;;;;0.84;53.86;97089.75;6323199;28;19920;-64
2022/04/06 04:04:07;;;;;;;;;;;;;;;0.71;53.68;97088.34;6322541;28;19920;-63
2022/04/06 04:07:18;;;;;;;;;;;;;;;0.83;53.55;97102.75;6323308;28;19924;-63
2022/04/06 04:10:19;;;;;;;;;;;;;;;0.92;53.49;97097.34;6322785;28;19919;-64
2022/04/06 04:13:23;;;;;;;;;;;;;;;0.85;53.14;97101.84;6322713;28;19943;-64
2022/04/06 04:16:26;;;;;;;;;;;;;;;0.75;54.04;97107.25;6322717;28;20443;-64
2022/04/06 04:19:30;;;;;;;;;;;;;;;1.01;52.75;97125.63;6322811;28;19923;-64
2022/04/06 04:22:35;;;;;;;;;;;;;;;1.27;51.45;97112.06;6322622;28;19920;-65
2022/04/06 04:25:36;;;;;;;;;;;;;;;1.34;50.37;97121.41;6322519;28;19920;-65
2022/04/06 04:28:40;;;;;;;;;;;;;;;1.54;49.03;97122.66;6322549;28;19920;-65
2022/04/06 04:31:45;;;;;;;;;;;;;;;1.41;49.26;97121.25;6322803;28;20003;-64
2022/04/06 04:34:48;;;;;;;;;;;;;;;1.59;48.56;97126.00;6321480;28;19916;-65
2022/04/06 04:37:50;;;;;;;;;;;;;;;1.65;49.17;97125.84;6322881;28;20254;-63
2022/04/06 04:40:57;;;;;;;;;;;;;;;1.80;48.63;97122.84;6322886;28;20293;-65
2022/04/06 04:44:00;;;;;;;;;;;;;;;2.01;48.40;97134.41;6322690;28;20002;-65
2022/04/06 04:47:01;;;;;;;;;;;;;;;2.42;47.30;97128.97;6322135;28;19926;-63
2022/04/06 04:50:04;;;;;;;;;;;;;;;2.53;47.87;97139.91;6320941;28;19920;-65
2022/04/06 04:53:05;;;;;;;;;;;;;;;2.87;46.28;97125.91;6319819;28;20317;-65
2022/04/06 04:56:11;;;;;;;;;;;;;;;3.44;44.86;97140.59;6321794;28;20408;-64
2022/04/06 04:59:12;;;;;;;;;;;;;;;3.88;43.97;97135.69;6321272;28;19920;-65
2022/04/06 05:02:16;;;;;;;;;;;;;;;4.10;43.55;97133.16;6322120;28;20397;-65
2022/04/06 05:05:20;;;;;;;;;;;;;;;4.33;41.24;97129.78;6322172;28;19920;-64
2022/04/06 05:08:21;;;;;;;;;;;;;;;4.04;40.17;97136.84;6321457;28;19963;-64
2022/04/06 05:11:24;;;;;;;;;;;;;;;3.79;39.83;97128.16;6321831;28;20056;-65
2022/04/06 05:14:27;;;;;;;;;;;;;;;3.52;41.19;97130.78;6320710;28;19920;-64
2022/04/06 05:17:28;;;;;;;;;;;;;;;3.65;40.97;97130.38;6321100;28;20369;-64
2022/04/06 05:20:32;;;;;;;;;;;;;;;3.97;40.01;97137.97;6321792;28;19920;-65
2022/04/06 05:23:34;;;;;;;;;;;;;;;4.05;40.38;97128.13;6321861;28;20277;-64
2022/04/06 05:26:40;;;;;;;;;;;;;;;6.39;37.54;97126.81;6321337;28;19920;-65
2022/04/06 05:29:42;;;;;;;;;;;;;;;11.35;30.79;97135.16;6321473;28;19927;-64
2022/04/06 05:32:46;;;;;;;;;;;;;;;15.07;24.91;97126.34;6321557;28;19919;-64
2022/04/06 05:35:49;;;;;;;;;;;;;;;17.26;21.71;97136.47;6321023;28;19926;-64
2022/04/06 05:38:54;;;;;;;;;;;;;;;19.10;20.11;97135.66;6321345;28;20308;-64
2022/04/06 05:41:55;;;;;;;;;;;;;;;20.39;18.54;97139.13;6321229;28;19927;-64
2022/04/06 05:44:56;;;;;;;;;;;;;;;20.57;20.08;97142.63;6321131;28;20389;-66
2022/04/06 05:48:00;;;;;;;;;;;;;;;22.29;18.44;97151.47;6321216;28;19926;-64
2022/04/06 05:51:01;;;;;;;;;;;;;;;24.32;16.81;97166.38;6320580;28;20002;-64
2022/04/06 05:54:04;;;;;;;;;;;;;;;25.22;13.82;97154.84;6321041;28;19920;-65
2022/04/06 05:57:05;;;;;;;;;;;;;;;24.08;13.56;97159.28;6320902;28;19920;-65
2022/04/06 06:00:08;;;;;;;;;;;;;;;23.94;13.95;97148.28;6320101;28;19920;-65
2022/04/06 06:03:09;;;;;;;;;;;;;;;24.92;12.51;97144.03;6319136;28;19920;-64
2022/04/06 06:06:15;;;;;;;;;;;;;;;24.73;13.11;97141.84;6320646;28;19920;-65
2022/04/06 06:09:16;;;;;;;;;;;;;;;25.89;13.13;97149.34;6320529;28;19922;-64
2022/04/06 06:12:19;;;;;;;;;;;;;;;26.99;11.68;97152.72;6320398;28;20292;-64
2022/04/06 06:15:20;;;;;;;;;;;;;;;27.31;12.32;97157.53;6320128;28;20393;-65
2022/04/06 06:18:25;;;;;;;;;;;;;;;27.08;11.10;97148.84;6320836;28;19927;-65
2022/04/06 06:21:31;;;;;;;;;;;;;;;27.40;11.68;97160.09;6320297;28;20405;-64
2022/04/06 06:24:35;;;;;;;;;;;;;;;28.53;12.14;97166.81;6320532;28;19919;-65
2022/04/06 06:27:39;;;;;;;;;;;;;;;30.10;9.71;97164.34;6322109;28;19927;-65
2022/04/06 06:30:45;;;;;;;;;;;;;;;30.05;9.92;97161.44;6325692;28;19927;-65
2022/04/06 06:33:47;;;;;;;;;;;;;;;29.54;8.75;97133.22;6325643;28;19923;-65
2022/04/06 06:36:48;;;;;;;;;;;;;;;29.77;11.01;97141.69;6324942;28;20136;-66
2022/04/06 06:39:49;;;;;;;;;;;;;;;31.83;9.72;97152.09;6324969;28;19927;-65
2022/04/06 06:42:51;;;;;;;;;;;;;;;31.67;8.41;97159.78;6324780;28;20301;-66
2022/04/06 06:45:55;;;;;;;;;;;;;;;30.04;8.81;97157.88;6324649;28;19920;-64
2022/04/06 06:49:02;;;;;;;;;;;;;;;29.54;9.13;97139.47;6324726;28;19920;-64
2022/04/06 06:52:06;;;;;;;;;;;;;;;27.81;10.54;97143.06;6325585;28;19920;-65
2022/04/06 06:55:10;;;;;;;;;;;;;;;29.62;10.41;97129.44;6325219;28;20405;-65
2022/04/06 06:58:11;;;;;;;;;;;;;;;31.11;8.30;97139.00;6324676;28;20056;-65
2022/04/06 07:01:15;;;;;;;;;;;;;;;30.62;8.87;97135.22;6323969;28;19926;-65
2022/04/06 07:04:16;;;;;;;;;;;;;;;31.67;8.39;97145.34;6324104;28;19927;-65
2022/04/06 07:07:19;;;;;;;;;;;;;;;30.27;7.98;97138.38;6324917;28;19920;-65
2022/04/06 07:10:21;;;;;;;;;;;;;;;29.03;9.70;97117.69;6324407;28;20482;-64
2022/04/06 07:13:22;;;;;;;;;;;;;;;30.60;10.39;97124.59;6322654;28;20388;-65
2022/04/06 07:16:27;;;;;;;;;;;;;;;32.67;7.61;97130.44;6324431;28;19927;-64
2022/04/06 07:19:28;;;;;;;;;;;;;;;32.12;7.61;97129.53;6324222;28;20305;-64
2022/04/06 07:22:31;;;;;;;;;;;;;;;32.38;7.59;97135.66;6324330;28;19923;-64
2022/04/06 07:25:33;;;;;;;;;;;;;;;32.89;7.63;97134.25;6324265;28;19934;-65
2022/04/06 07:28:34;;;;;;;;;;;;;;;34.31;7.49;97127.59;6323940;28;19926;-65
2022/04/06 07:31:36;;;;;;;;;;;;;;;35.11;6.05;97122.97;6324148;28;20954;-65
2022/04/06 07:34:40;;;;;;;;;;;;;;;31.66;7.35;97120.03;6323138;28;19920;-65
2022/04/06 07:37:41;;;;;;;;;;;;;;;30.29;7.68;97114.56;6322705;28;19920;-65
2022/04/06 07:40:43;;;;;;;;;;;;;;;29.65;8.61;97112.78;6323070;28;19938;-65
2022/04/06 07:43:45;;;;;;;;;;;;;;;31.30;7.77;97116.22;6323145;28;19981;-65
2022/04/06 07:46:47;;;;;;;;;;;;;;;32.27;7.86;97115.50;6323966;28;20381;-65
2022/04/06 07:49:50;;;;;;;;;;;;;;;32.82;7.05;97101.69;6323887;28;19928;-65
2022/04/06 07:52:54;;;;;;;;;;;;;;;32.91;7.81;97104.88;6323048;28;19981;-65
2022/04/06 07:56:00;;;;;;;;;;;;;;;33.28;6.36;97104.66;6323874;28;19920;-64
2022/04/06 07:59:01;;;;;;;;;;;;;;;31.68;7.50;97100.78;6323134;28;19927;-65
2022/04/06 08:02:02;;;;;;;;;;;;;;;31.16;7.03;97100.28;6323008;28;19920;-65
2022/04/06 08:05:06;;;;;;;;;;;;;;;30.29;8.23;97098.28;6323328;28;20385;-65
2022/04/06 08:08:07;;;;;;;;;;;;;;;31.74;7.86;97087.09;6322762;28;19996;-66
2022/04/06 08:11:10;;;;;;;;;;;;;;;32.00;7.54;97092.44;6323708;28;19920;-65
2022/04/06 08:14:12;;;;;;;;;;;;;;;30.71;7.43;97067.84;6323400;28;19927;-66
2022/04/06 08:17:15;;;;;;;;;;;;;;;30.02;7.37;97085.88;6322977;28;20014;-65
2022/04/06 08:20:18;;;;;;;;;;;;;;;27.78;8.78;97068.56;6323349;28;20679;-65
2022/04/06 08:23:21;;;;;;;;;;;;;;;28.15;8.84;97059.13;6323179;28;19924;-65
2022/04/06 08:26:25;;;;;;;;;;;;;;;28.43;8.15;97060.84;6323201;28;19920;-65
2022/04/06 08:29:28;;;;;;;;;;;;;;;26.53;9.05;97054.16;6321672;28;19924;-65
2022/04/06 08:32:30;;;;;;;;;;;;;;;25.67;9.98;97055.97;6320817;28;19916;-67
2022/04/06 08:35:32;;;;;;;;;;;;;;;26.09;9.25;97043.56;6322533;28;19927;-65
2022/04/06 08:38:38;;;;;;;;;;;;;;;24.50;10.43;97053.94;6322503;28;19927;-65
2022/04/06 08:41:40;;;;;;;;;;;;;;;24.38;10.96;97050.00;6322545;28;19942;-64
2022/04/06 08:44:43;;;;;;;;;;;;;;;25.56;9.90;97045.69;6321758;28;20022;-66
2022/04/06 08:47:49;;;;;;;;;;;;;;;25.27;10.03;97068.94;6320536;28;19920;-65
2022/04/06 08:50:51;;;;;;;;;;;;;;;23.14;11.11;97042.91;6321945;28;19926;-64
2022/04/06 08:53:57;;;;;;;;;;;;;;;22.92;11.60;97033.72;6322251;28;19919;-65
2022/04/06 08:57:02;;;;;;;;;;;;;;;23.42;11.46;97051.31;6322309;28;19938;-64
2022/04/06 09:00:06;;;;;;;;;;;;;;;23.97;10.95;97055.69;6322179;28;19926;-65
2022/04/06 09:03:09;;;;;;;;;;;;;;;23.91;10.82;97043.81;6322036;28;20338;-65
2022/04/06 09:06:13;;;;;;;;;;;;;;;24.80;10.46;97056.69;6322404;28;20010;-66
2022/04/06 09:09:20;;;;;;;;;;;;;;;24.41;10.38;97052.31;6321356;28;19931;-64
2022/04/06 09:12:23;;;;;;;;;;;;;;;24.73;10.84;97044.97;6322082;28;19927;-65
2022/04/06 09:15:24;;;;;;;;;;;;;;;24.80;10.45;97049.44;6321100;28;20390;-65
2022/04/06 09:18:34;;;;;;;;;;;;;;;24.30;10.98;97039.31;6321817;28;19920;-65
2022/04/06 09:21:39;;;;;;;;;;;;;;;23.77;11.02;97049.13;6321316;28;19915;-67
2022/04/06 09:24:41;;;;;;;;;;;;;;;23.39;11.24;97046.31;6320008;28;19926;-65
2022/04/06 09:27:42;;;;;;;;;;;;;;;23.61;10.75;97045.50;6321265;28;20014;-65
2022/04/06 09:30:44;;;;;;;;;;;;;;;23.81;11.09;97039.69;6320752;28;19973;-65
2022/04/06 09:34:00;;;;;;;;;;;;;;;23.65;10.86;97036.06;6321336;28;19920;-64
2022/04/06 09:37:22;;;;;;;;;;;;;;;23.25;11.23;97035.28;6321239;28;19928;-67
2022/04/06 09:40:29;;;;;;;;;;;;;;;23.71;11.06;97032.69;6321378;28;19927;-70
2022/04/06 09:43:34;;;;;;;;;;;;;;;23.36;10.94;97026.00;6321352;28;19920;-67
2022/04/06 09:50:11;;;;;;;;;;;;;;;20.81;12.67;97026.97;6321200;28;20309;-65
2022/04/06 09:53:14;;;;;;;;;;;;;;;20.83;12.66;97018.78;6320785;28;19924;-64
2022/04/06 09:56:16;;;;;;;;;;;;;;;20.82;12.57;97007.25;6320567;28;19920;-68
2022/04/06 09:59:17;;;;;;;;;;;;;;;20.83;12.64;97018.78;6320954;28;19973;-64
2022/04/06 10:02:18;;;;;;;;;;;;;;;21.39;12.49;97006.63;6320240;28;20392;-65
2022/04/06 10:05:21;;;;;;;;;;;;;;;22.43;11.93;97007.88;6319241;28;20373;-65
2022/04/06 10:08:37;;;;;;;;;;;;;;;21.98;12.00;97001.19;6320839;28;19927;-65
2022/04/06 10:11:39;;;;;;;;;;;;;;;21.93;11.92;96996.31;6320754;28;19920;-65
2022/04/06 10:14:44;;;;;;;;;;;;;;;21.27;12.56;96994.53;6321009;28;19920;-70
2022/04/06 10:17:48;;;;;;;;;;;;;;;19.89;13.29;96990.09;6320937;28;19920;-65
2022/04/06 10:20:51;;;;;;;;;;;;;;;17.83;15.04;96995.72;6320299;28;20309;-66
2022/04/06 10:24:04;;;;;;;;;;;;;;;17.41;15.56;96991.50;6320426;28;20031;-65
2022/04/06 10:27:17;;;;;;;;;;;;;;;15.55;17.04;96998.72;6319913;28;19927;-65
2022/04/06 10:30:26;;;;;;;;;;;;;;;14.32;18.28;96992.69;6320636;28;19920;-64
2022/04/06 10:33:27;;;;;;;;;;;;;;;13.37;19.25;96985.84;6320374;28;19927;-65
2022/04/06 10:36:32;;;;;;;;;;;;;;;13.18;19.66;96994.25;6318636;28;19919;-65
2022/04/06 10:39:54;;;;;;;;;;;;;;;12.76;19.93;96985.84;6319955;28;19923;-65
2022/04/06 10:42:58;;;;;;;;;;;;;;;13.46;19.52;96988.63;6320555;28;19920;-65
2022/04/06 10:46:00;;;;;;;;;;;;;;;13.66;19.44;96988.94;6318465;28;20298;-64
2022/04/06 10:49:07;;;;;;;;;;;;;;;15.06;18.52;96986.84;6319714;28;19920;-65
2022/04/06 10:52:19;;;;;;;;;;;;;;;16.43;17.16;96978.06;6319019;28;19920;-65
2022/04/06 10:55:24;;;;;;;;;;;;;;;17.31;16.50;96977.34;6319858;28;20385;-64
2022/04/06 10:58:26;;;;;;;;;;;;;;;17.88;16.26;96988.16;6319622;28;20013;-65
2022/04/06 11:01:31;;;;;;;;;;;;;;;18.15;15.97;96988.25;6319348;28;19916;-66
2022/04/06 11:04:38;;;;;;;;;;;;;;;17.88;16.08;96982.81;6319595;28;20010;-66
2022/04/06 11:11:21;;;;;;;;;;;;;;;17.22;16.90;96960.41;6320350;28;19923;-65
2022/04/06 11:14:24;;;;;;;;;;;;;;;16.81;17.38;96977.38;6322190;28;19927;-65
2022/04/06 11:17:34;;;;;;;;;;;;;;;16.95;17.36;96984.13;6324768;28;19927;-65
2022/04/06 11:20:38;;;;;;;;;;;;;;;17.33;17.04;96958.59;6324872;28;20313;-64
2022/04/06 11:23:42;;;;;;;;;;;;;;;18.04;16.56;96950.28;6324754;28;19924;-67
2022/04/06 11:26:47;;;;;;;;;;;;;;;18.05;16.70;96965.28;6324025;28;20015;-65
2022/04/06 11:29:48;;;;;;;;;;;;;;;16.42;18.08;96955.13;6324140;28;20014;-65
2022/04/06 11:32:53;;;;;;;;;;;;;;;15.54;18.94;96954.63;6324303;28;19943;-66
2022/04/06 11:35:54;;;;;;;;;;;;;;;15.60;19.22;96948.78;6321822;28;19927;-65
2022/04/06 11:38:55;;;;;;;;;;;;;;;14.17;20.78;96950.69;6323891;28;20015;-65
2022/04/06 11:42:03;;;;;;;;;;;;;;;13.71;21.62;96928.63;6324247;28;19919;-65
2022/04/06 11:45:10;;;;;;;;;;;;;;;13.66;21.68;96925.50;6324218;28;19920;-66
2022/04/06 11:48:12;;;;;;;;;;;;;;;13.72;21.87;96925.00;6323873;28;20420;-64
2022/04/06 11:51:16;;;;;;;;;;;;;;;13.44;22.02;96942.97;6323927;28;20018;-65
2022/04/06 11:54:19;;;;;;;;;;;;;;;12.93;22.62;96937.91;6323680;28;19930;-64
2022/04/06 11:57:31;;;;;;;;;;;;;;;12.52;22.98;96931.22;6323447;28;20325;-65
2022/04/06 12:00:35;;;;;;;;;;;;;;;12.07;23.65;96933.53;6323195;28;19920;-65
2022/04/06 12:03:42;;;;;;;;;;;;;;;11.84;24.05;96931.63;6323557;28;19916;-64
2022/04/06 12:06:43;;;;;;;;;;;;;;;12.65;23.42;96927.69;6323005;28;19920;-66
2022/04/06 12:09:47;;;;;;;;;;;;;;;12.80;23.14;96926.59;6323224;28;19916;-64
2022/04/06 12:12:51;;;;;;;;;;;;;;;12.49;23.49;96928.81;6323203;28;19950;-66
2022/04/06 12:15:54;;;;;;;;;;;;;;;12.21;23.90;96939.63;6322685;28;19920;-64
2022/04/06 12:18:58;;;;;;;;;;;;;;;11.46;24.75;96932.41;6322096;28;20296;-67
2022/04/06 12:22:11;;;;;;;;;;;;;;;11.27;25.44;96930.19;6322538;28;19919;-66
2022/04/06 12:25:30;;;;;;;;;;;;;;;10.95;26.19;96916.50;6322478;28;19920;-66
2022/04/06 12:28:31;;;;;;;;;;;;;;;10.95;25.88;96933.13;6321999;28;19919;-66
2022/04/06 12:31:36;;;;;;;;;;;;;;;11.19;25.97;96930.69;6321970;28;19919;-66
2022/04/06 12:34:40;;;;;;;;;;;;;;;10.92;26.69;96932.50;6322286;28;20289;-66
2022/04/06 12:37:46;;;;;;;;;;;;;;;10.82;26.74;96931.44;6322697;28;20088;-66
2022/04/06 12:41:01;;;;;;;;;;;;;;;10.50;27.01;96916.78;6322025;28;19919;-66
2022/04/06 12:44:13;;;;;;;;;;;;;;;10.45;27.10;96923.28;6322480;28;19919;-65
2022/04/06 12:47:19;;;;;;;;;;;;;;;10.34;27.63;96923.94;6322055;28;19984;-65
2022/04/06 12:50:20;;;;;;;;;;;;;;;10.12;28.04;96927.88;6322200;28;20010;-65
2022/04/06 12:53:26;;;;;;;;;;;;;;;9.98;28.33;96916.53;6322374;28;19920;-65
2022/04/06 12:56:30;;;;;;;;;;;;;;;9.75;28.76;96913.53;6322041;28;19920;-66
2022/04/06 12:59:35;;;;;;;;;;;;;;;9.43;28.96;96918.94;6321504;28;19920;-65
2022/04/06 13:02:45;;;;;;;;;;;;;;;9.29;29.31;96916.28;6322311;28;20007;-65
2022/04/06 13:05:53;;;;;;;;;;;;;;;9.24;29.42;96907.84;6322326;28;19920;-65
2022/04/06 13:08:55;;;;;;;;;;;;;;;9.46;29.10;96902.16;6320159;28;19927;-65
2022/04/06 13:11:58;;;;;;;;;;;;;;;9.77;28.62;96901.16;6321563;28;19920;-65
2022/04/06 13:15:00;;;;;;;;;;;;;;;9.84;28.83;96910.31;6321566;28;19920;-65
2022/04/06 13:18:07;;;;;;;;;;;;;;;10.08;28.85;96904.50;6321529;28;19919;-64
2022/04/06 13:21:11;;;;;;;;;;;;;;;9.80;29.10;96903.59;6320504;28;19920;-65
2022/04/06 13:24:13;;;;;;;;;;;;;;;9.77;29.62;96901.16;6320809;28;19923;-65
2022/04/06 13:27:21;;;;;;;;;;;;;;;9.38;30.10;96894.72;6321776;28;19920;-65
2022/04/06 13:30:22;;;;;;;;;;;;;;;9.26;30.66;96890.22;6320925;28;19920;-69
2022/04/06 13:33:23;;;;;;;;;;;;;;;8.95;31.13;96894.63;6319957;28;20301;-64
2022/04/06 13:36:24;;;;;;;;;;;;;;;8.70;31.53;96889.09;6320150;28;20270;-64
2022/04/06 13:39:30;;;;;;;;;;;;;;;8.53;31.85;96890.91;6336872;28;19977;-65
2022/04/06 13:42:33;;;;;;;;;;;;;;;8.51;32.01;96886.66;6321258;28;20305;-65
2022/04/06 13:45:37;;;;;;;;;;;;;;;8.58;32.78;96893.28;6320901;28;19943;-65
2022/04/06 13:48:38;;;;;;;;;;;;;;;8.29;33.46;96889.59;6320504;28;20305;-66
2022/04/06 13:51:39;;;;;;;;;;;;;;;8.29;35.09;96892.22;6318733;28;19919;-65
2022/04/06 13:54:40;;;;;;;;;;;;;;;7.86;35.56;96884.94;6320556;28;19920;-65
2022/04/06 13:57:41;;;;;;;;;;;;;;;7.83;36.60;96889.50;6320184;28;19930;-64
2022/04/06 14:00:42;;;;;;;;;;;;;;;7.77;37.35;96887.22;6319487;28;19920;-66
2022/04/06 14:03:45;;;;;;;;;;;;;;;7.65;38.43;96880.88;6319978;28;20351;-65
2022/04/06 14:06:49;;;;;;;;;;;;;;;7.87;38.90;96880.56;6319990;28;20481;-65
2022/04/06 14:09:50;;;;;;;;;;;;;;;7.52;39.11;96879.81;6320240;28;19966;-65
2022/04/06 14:12:53;;;;;;;;;;;;;;;7.51;39.52;96881.59;6319888;28;19916;-64
2022/04/06 14:15:57;;;;;;;;;;;;;;;7.34;39.43;96876.38;6320731;28;20304;-65
2022/04/06 14:19:01;;;;;;;;;;;;;;;7.30;40.24;96874.84;6320675;28;19920;-64
2022/04/06 14:22:03;;;;;;;;;;;;;;;7.14;40.91;96875.63;6320640;28;20034;-65
2022/04/06 14:25:20;;;;;;;;;;;;;;;7.12;41.01;96877.47;6320277;28;19920;-65
2022/04/06 14:28:24;;;;;;;;;;;;;;;6.99;41.33;96876.41;6320620;28;19928;-66
2022/04/06 14:31:29;;;;;;;;;;;;;;;6.78;42.28;96872.25;6320304;28;19986;-65
2022/04/06 14:34:33;;;;;;;;;;;;;;;6.77;42.38;96870.59;6319622;28;20020;-65
2022/04/06 14:37:36;;;;;;;;;;;;;;;6.52;42.86;96872.63;6320005;28;19920;-65
2022/04/06 14:40:41;;;;;;;;;;;;;;;6.38;43.24;96866.38;6320614;28;19920;-65
2022/04/06 14:43:43;;;;;;;;;;;;;;;6.30;43.54;96871.97;6319801;28;19927;-64
2022/04/06 14:46:44;;;;;;;;;;;;;;;6.24;44.29;96867.88;6320048;28;20374;-65
2022/04/06 14:49:45;;;;;;;;;;;;;;;6.09;44.34;96868.59;6324570;28;19945;-65
2022/04/06 14:52:48;;;;;;;;;;;;;;;6.04;44.52;96860.97;6325109;28;20004;-64
2022/04/06 14:55:49;;;;;;;;;;;;;;;5.98;44.83;96866.50;6323624;28;20018;-65
2022/04/06 14:58:50;;;;;;;;;;;;;;;5.85;44.79;96874.00;6325231;28;19927;-64
2022/04/06 15:01:51;;;;;;;;;;;;;;;5.73;44.56;96866.75;6324493;28;20014;-65
2022/04/06 15:04:53;;;;;;;;;;;;;;;5.63;44.87;96871.53;6324312;28;20004;-65
2022/04/06 15:07:54;;;;;;;;;;;;;;;5.96;45.24;96872.69;6324503;28;20340;-66
2022/04/06 15:10:57;;;;;;;;;;;;;;;5.81;45.68;96875.06;6324918;28;19927;-66
2022/04/06 15:13:58;;;;;;;;;;;;;;;5.98;45.61;96876.09;6324473;28;19920;-65
2022/04/06 15:16:59;;;;;;;;;;;;;;;6.12;45.96;96883.28;6323990;28;20312;-66
2022/04/06 15:20:04;;;;;;;;;;;;;;;6.19;46.46;96880.28;6324806;28;19951;-65
2022/04/06 15:23:05;;;;;;;;;;;;;;;6.02;46.80;96882.84;6324442;28;20061;-66
2022/04/06 15:26:07;;;;;;;;;;;;;;;6.08;47.33;96893.00;6322932;28;19974;-65
2022/04/06 15:29:09;;;;;;;;;;;;;;;5.97;47.25;96890.94;6323841;28;20014;-64
2022/04/06 15:32:12;;;;;;;;;;;;;;;6.03;47.92;96895.03;6324676;28;20393;-65
2022/04/06 15:38:33;;;;;;;;;;;;;;;5.87;48.08;96888.78;6324033;28;19927;-65
2022/04/06 15:41:37;;;;;;;;;;;;;;;5.91;48.67;96905.97;6324105;28;20308;-65
2022/04/06 15:44:41;;;;;;;;;;;;;;;5.93;48.53;96906.75;6324046;28;19919;-65
2022/04/06 15:47:45;;;;;;;;;;;;;;;5.88;49.04;96901.75;6323885;28;19923;-65
2022/04/06 15:50:49;;;;;;;;;;;;;;;5.89;49.77;96897.34;6323856;28;19920;-67
2022/04/06 15:53:50;;;;;;;;;;;;;;;5.78;49.99;96901.31;6323829;28;19934;-66
2022/04/06 15:56:52;;;;;;;;;;;;;;;5.82;51.44;96897.66;6323636;28;20458;-65
2022/04/06 15:59:53;;;;;;;;;;;;;;;5.53;52.20;96900.72;6322680;28;19927;-64
2022/04/06 16:02:54;;;;;;;;;;;;;;;5.31;52.74;96906.88;6323551;28;20305;-65
2022/04/06 16:05:55;;;;;;;;;;;;;;;5.25;53.77;96901.09;6322983;28;20012;-66
2022/04/06 16:08:57;;;;;;;;;;;;;;;5.16;53.05;96902.31;6321633;28;20444;-65
2022/04/06 16:11:58;;;;;;;;;;;;;;;5.26;53.72;96902.78;6323330;28;19920;-65
2022/04/06 16:15:03;;;;;;;;;;;;;;;5.35;54.67;96898.03;6323544;28;19920;-64